Point Isabel — WDD7993 — position and weather

sailwx.info

Track history (hours):
 
Tides and Currents Weather Stations Pressure Air Temp Water Temp Dewpoint Dewpoint Depression Visibility Wind Speed Wind Dir Waves Ship Positions

Point Isabel

Owner: Higman Barge Lines, Inc., Orange, TX. More information available from US FCC via Universal Licensing System and Coast Guard Vessel Documentation Center.

Last reported at 2018-Jul-10 13:33 UTC. Time now 2018-Jul-21 07:52 UTC.
Position N 30°05' W 093°44'.
Warning: this ship's position is 10 days out of date.

Length 24 m; draft 3.2 m.

Type: . MMSI: 367193780.

Date/timePositionNaut miles runAvg speedWind from/ knotsBaromVisibWave heightAir tempDewpointWater temp
2018-Jul-10 13:33N 30°05' W 093°44'0 0.0
2018-Jul-10 13:16N 30°05' W 093°44'0 0.0
2018-Jul-10 12:55N 30°05' W 093°44'0 0.0
2018-Jul-10 12:29N 30°05' W 093°44'0 0.0
2018-Jul-10 12:00N 30°05' W 093°44'0 0.0
2018-Jul-10 11:27N 30°05' W 093°44'0 0.0
2018-Jul-10 11:00N 30°05' W 093°44'0 0.0
2018-Jul-10 10:27N 30°05' W 093°44'0 0.0
2018-Jul-10 10:00N 30°05' W 093°44'0 0.0
2018-Jul-10 09:31N 30°05' W 093°44'0 0.0
2018-Jul-10 07:51N 30°05' W 093°44'0 0.0
2018-Jul-10 07:29N 30°05' W 093°44'0 0.0
2018-Jul-10 07:00N 30°05' W 093°44'0 0.0
2018-Jul-10 06:30N 30°05' W 093°44'0 0.0
2018-Jul-10 06:00N 30°05' W 093°44'0 0.0
2018-Jul-10 05:30N 30°05' W 093°44'0 0.0
2018-Jul-10 04:57N 30°05' W 093°44'0 0.0
2018-Jul-10 04:30N 30°05' W 093°44'0 0.0
2018-Jul-10 03:57N 30°05' W 093°44'0 0.0
2018-Jul-10 03:30N 30°05' W 093°44'0 0.0
2018-Jul-10 02:43N 30°05' W 093°44'0 0.0
2018-Jul-10 02:11N 30°05' W 093°44'0 0.0
2018-Jul-10 01:58N 30°05' W 093°44'0 0.0
2018-Jul-10 01:29N 30°05' W 093°44'0 0.0
2018-Jul-10 00:56N 30°05' W 093°44'0 0.0
2018-Jul-10 00:18N 30°05' W 093°44'0 0.0
2018-Jul-09 23:39N 30°05' W 093°44'0 0.0
2018-Jul-09 23:29N 30°05' W 093°44'0 0.0
2018-Jul-09 23:00N 30°05' W 093°44'0 0.0
2018-Jul-08 13:35N 30°05' W 093°44'0 0.1
2018-Jul-08 13:30N 30°05' W 093°44'0 0.0
2018-Jul-08 12:59N 30°05' W 093°44'0 0.0
2018-Jul-08 12:25N 30°05' W 093°44'0 0.0
2018-Jul-08 10:01N 30°05' W 093°44'0 0.0
2018-Jul-08 10:00N 30°05' W 093°44'0 0.0
2018-Jul-08 08:56N 30°05' W 093°44'0 0.0
2018-Jul-08 07:52N 30°05' W 093°44'0 0.0
2018-Jul-08 07:28N 30°05' W 093°44'0 0.0
2018-Jul-08 06:41N 30°05' W 093°44'0 0.0
2018-Jul-08 06:27N 30°05' W 093°44'0 0.0
2018-Jul-08 06:00N 30°05' W 093°44'0 0.0
2018-Jul-08 04:21N 30°05' W 093°44'0 0.0
2018-Jul-08 03:58N 30°05' W 093°44'0 0.0
2018-Jul-08 00:33N 30°05' W 093°44'0 0.0
2018-Jul-08 00:30N 30°05' W 093°44'0 0.0
2018-Jul-07 23:59N 30°05' W 093°44'0 0.0
2018-Jul-07 23:30N 30°05' W 093°44'12 1.7
2018-Jul-07 16:46N 29°56' W 093°52'2 6.5
2018-Jul-07 16:30N 29°54' W 093°54'4 7.0
2018-Jul-07 15:57N 29°52' W 093°56'3 5.9
2018-Jul-07 15:23N 29°49' W 093°59'41 4.7
2018-Jul-07 06:43N 29°28' W 094°39'11 3.6
2018-Jul-07 03:37N 29°30' W 094°52'1 6.2
2018-Jul-07 03:30N 29°30' W 094°52'3 6.1
2018-Jul-07 03:00N 29°33' W 094°54'3 6.0
2018-Jul-07 02:30N 29°35' W 094°56'3 5.8
2018-Jul-07 01:58N 29°38' W 094°58'3 6.3
2018-Jul-07 01:30N 29°41' W 094°59'3 6.2
2018-Jul-07 01:00N 29°43' W 095°01'3 5.6
2018-Jul-07 00:30N 29°45' W 095°04'3 0.3
2018-Jul-06 15:00N 29°47' W 095°04'0 0.0
2018-Jul-06 13:52N 29°47' W 095°04'0 0.0
2018-Jul-06 13:27N 29°47' W 095°04'0 0.0
2018-Jul-06 13:00N 29°47' W 095°04'0 0.0
2018-Jul-06 12:30N 29°47' W 095°04'0 0.0
2018-Jul-06 11:47N 29°47' W 095°04'0 0.0
2018-Jul-06 06:03N 29°47' W 095°04'0 0.0
2018-Jul-06 06:00N 29°47' W 095°04'0 0.0
2018-Jul-06 05:30N 29°47' W 095°04'0 0.0
2018-Jul-06 05:00N 29°47' W 095°04'0 0.0
2018-Jul-06 04:25N 29°47' W 095°04'0 0.0
2018-Jul-06 03:23N 29°47' W 095°04'0 0.0
2018-Jul-06 02:59N 29°47' W 095°04'0 0.0
2018-Jul-06 01:34N 29°47' W 095°04'0 0.0
2018-Jul-06 01:08N 29°47' W 095°04'0 0.0
2018-Jul-05 14:00N 29°47' W 095°04'0 0.0
2018-Jul-05 13:30N 29°47' W 095°04'0 0.0
2018-Jul-05 12:59N 29°47' W 095°04'0 0.0
2018-Jul-05 12:26N 29°47' W 095°04'0 0.0
2018-Jul-05 12:00N 29°47' W 095°04'0 0.0
2018-Jul-05 11:29N 29°47' W 095°04'0 0.0
2018-Jul-05 10:59N 29°47' W 095°04'0 0.6
2018-Jul-05 10:30N 29°48' W 095°04'0 0.0
2018-Jul-05 10:00N 29°48' W 095°04'0 0.3
2018-Jul-05 09:30N 29°47' W 095°04'0 0.0
2018-Jul-05 09:00N 29°47' W 095°04'0 0.0
2018-Jul-05 08:30N 29°47' W 095°04'0 0.0
2018-Jul-05 08:00N 29°47' W 095°04'0 0.0
2018-Jul-05 07:27N 29°47' W 095°04'0 0.0
2018-Jul-05 07:00N 29°47' W 095°04'0 0.0
2018-Jul-05 06:28N 29°47' W 095°04'0 0.0
2018-Jul-05 05:29N 29°47' W 095°04'0 0.0
2018-Jul-05 04:59N 29°47' W 095°04'0 0.0
2018-Jul-05 04:30N 29°47' W 095°04'0 0.0
2018-Jul-05 03:46N 29°47' W 095°04'1 0.1
2018-Jul-04 21:55N 29°47' W 095°04'1 1.3
2018-Jul-04 20:59N 29°46' W 095°05'1 0.9
2018-Jul-04 20:21N 29°45' W 095°06'0 0.2
2018-Jul-04 19:53N 29°45' W 095°06'3 5.1
2018-Jul-04 19:23N 29°48' W 095°04'0 0.0
2018-Jul-04 18:52N 29°48' W 095°04'0 0.0
2018-Jul-04 18:08N 29°48' W 095°04'0 0.0
2018-Jul-04 17:56N 29°48' W 095°04'0 0.0
2018-Jul-04 17:30N 29°48' W 095°04'1 0.3
2018-Jul-04 15:13N 29°47' W 095°05'0 0.1
2018-Jul-04 15:00N 29°47' W 095°05'0 0.0
2018-Jul-04 14:30N 29°47' W 095°05'0 0.0
2018-Jul-04 14:00N 29°47' W 095°05'0 0.0
2018-Jul-04 13:28N 29°47' W 095°05'0 0.4
2018-Jul-04 13:00N 29°47' W 095°04'1 2.4
2018-Jul-04 12:30N 29°46' W 095°05'3 4.9
2018-Jul-04 11:55N 29°44' W 095°08'5 5.1
2018-Jul-04 10:58N 29°43' W 095°13'1 2.9
2018-Jul-04 10:30N 29°43' W 095°15'0 0.0
2018-Jul-04 10:00N 29°43' W 095°15'0 0.0
2018-Jul-04 05:57N 29°43' W 095°15'0 0.1
2018-Jul-04 05:25N 29°43' W 095°15'1 2.0
2018-Jul-04 04:57N 29°44' W 095°14'0 0.1
2018-Jul-04 04:29N 29°44' W 095°14'2 4.7
2018-Jul-04 04:00N 29°45' W 095°11'3 6.4
2018-Jul-04 03:29N 29°44' W 095°08'3 6.5
2018-Jul-04 03:00N 29°46' W 095°05'1 1.8
2018-Jul-04 02:29N 29°47' W 095°04'1 1.0
2018-Jul-04 01:31N 29°47' W 095°06'0 0.4
2018-Jul-04 01:19N 29°47' W 095°05'1 2.7
2018-Jul-04 01:00N 29°47' W 095°05'0 0.1
2018-Jul-03 23:57N 29°47' W 095°04'0 0.3
2018-Jul-03 23:30N 29°47' W 095°05'0 0.0
2018-Jul-03 23:00N 29°47' W 095°05'0 0.0
2018-Jul-03 22:30N 29°47' W 095°05'0 0.0
2018-Jul-03 22:00N 29°47' W 095°05'0 0.0
2018-Jul-03 21:30N 29°47' W 095°05'0 0.0
2018-Jul-03 21:00N 29°47' W 095°05'0 0.1
2018-Jul-03 20:26N 29°47' W 095°04'0 0.4
2018-Jul-03 19:57N 29°47' W 095°05'0 0.4
2018-Jul-03 19:27N 29°47' W 095°05'0 0.0
2018-Jul-03 19:00N 29°47' W 095°05'0 0.0
2018-Jul-03 18:30N 29°47' W 095°05'0 0.0
2018-Jul-03 18:00N 29°47' W 095°05'0 0.0
2018-Jul-03 17:30N 29°47' W 095°05'0 0.0
2018-Jul-03 17:00N 29°47' W 095°05'0 0.7
2018-Jul-03 16:23N 29°47' W 095°04'0 1.1
2018-Jul-03 16:00N 29°47' W 095°05'0 0.0
2018-Jul-03 15:30N 29°47' W 095°05'0 0.0
2018-Jul-03 15:00N 29°47' W 095°05'0 0.0
2018-Jul-03 14:30N 29°47' W 095°05'0 0.0
2018-Jul-03 14:00N 29°47' W 095°05'0 0.0
2018-Jul-03 12:09N 29°47' W 095°05'0 0.0
2018-Jul-03 12:00N 29°47' W 095°05'0 0.0
2018-Jul-03 11:30N 29°47' W 095°05'0 0.0
2018-Jul-03 11:00N 29°47' W 095°05'0 0.0
2018-Jul-03 10:31N 29°47' W 095°05'0 0.0
2018-Jul-03 10:01N 29°47' W 095°05'0 0.0
2018-Jul-03 09:30N 29°47' W 095°05'0 0.0
2018-Jul-03 09:00N 29°47' W 095°05'0 0.0
2018-Jul-03 08:30N 29°47' W 095°05'0 0.0
2018-Jul-03 08:00N 29°47' W 095°05'0 0.0
2018-Jul-03 07:31N 29°47' W 095°05'0 0.0
2018-Jul-03 07:00N 29°47' W 095°05'0 0.0
2018-Jul-03 06:30N 29°47' W 095°05'1 2.2
2018-Jul-03 06:00N 29°46' W 095°05'1 1.8
2018-Jul-03 05:20N 29°45' W 095°06'0 0.1
2018-Jul-03 04:52N 29°45' W 095°06'1 3.5
2018-Jul-03 04:30N 29°46' W 095°05'1 2.4
2018-Jul-03 03:58N 29°47' W 095°05'0 0.4
2018-Jul-03 03:28N 29°47' W 095°06'0 0.1
2018-Jul-03 02:57N 29°47' W 095°05'0 0.0
2018-Jul-03 02:30N 29°47' W 095°05'0 0.0
2018-Jul-03 01:59N 29°47' W 095°05'0 0.0
2018-Jul-03 01:23N 29°47' W 095°05'0 0.0
2018-Jul-03 00:52N 29°47' W 095°05'0 0.0
2018-Jul-03 00:28N 29°47' W 095°05'0 0.0
2018-Jul-02 14:04N 29°47' W 095°06'0 0.0
2018-Jul-02 13:53N 29°47' W 095°06'0 0.0
2018-Jul-02 13:24N 29°47' W 095°06'0 0.0
2018-Jul-02 13:00N 29°47' W 095°06'0 0.0
2018-Jul-02 12:30N 29°47' W 095°06'0 0.0
2018-Jul-02 12:00N 29°47' W 095°06'0 0.0
2018-Jul-02 11:20N 29°47' W 095°06'0 0.0
2018-Jul-02 10:56N 29°47' W 095°06'0 0.0
2018-Jul-02 10:29N 29°47' W 095°06'0 0.0
2018-Jul-02 09:59N 29°47' W 095°06'0 0.0
2018-Jul-02 09:30N 29°47' W 095°06'0 0.0
2018-Jul-02 08:59N 29°47' W 095°06'0 0.0
2018-Jul-02 08:29N 29°47' W 095°06'1 2.1
2018-Jul-02 08:00N 29°47' W 095°04'0 0.4
2018-Jul-02 07:30N 29°47' W 095°05'0 0.0
2018-Jul-02 07:00N 29°47' W 095°05'0 0.0
2018-Jul-02 06:30N 29°47' W 095°05'0 0.0
2018-Jul-02 06:01N 29°47' W 095°05'0 0.0
2018-Jul-02 05:30N 29°47' W 095°05'0 0.0
2018-Jul-02 05:01N 29°47' W 095°05'0 0.0
2018-Jul-02 04:30N 29°47' W 095°05'0 0.0
2018-Jul-02 04:00N 29°47' W 095°05'0 0.0
2018-Jul-02 03:31N 29°47' W 095°05'0 0.0
2018-Jul-02 03:00N 29°47' W 095°05'0 0.0
2018-Jul-02 02:30N 29°47' W 095°05'0 0.0
2018-Jul-02 02:00N 29°47' W 095°05'0 0.0
2018-Jul-02 01:30N 29°47' W 095°05'0 0.0
2018-Jul-02 01:00N 29°47' W 095°05'0 0.0
2018-Jul-02 00:30N 29°47' W 095°05'0 0.0
2018-Jul-02 00:00N 29°47' W 095°05'0 0.0
2018-Jul-01 23:30N 29°47' W 095°05'0 0.0
2018-Jul-01 23:00N 29°47' W 095°05'0 0.0
2018-Jul-01 22:30N 29°47' W 095°05'0 0.0
2018-Jul-01 22:00N 29°47' W 095°05'0 0.0
2018-Jul-01 21:31N 29°47' W 095°05'0 0.0
2018-Jul-01 21:00N 29°47' W 095°05'0 0.0
2018-Jul-01 20:30N 29°47' W 095°05'0 0.7
2018-Jul-01 19:59N 29°47' W 095°05'1 0.7
2018-Jul-01 19:04N 29°47' W 095°04'0 5.0
2018-Jul-01 19:00N 29°47' W 095°05'5 6.8
2018-Jul-01 18:18N 29°44' W 095°09'4 2.5
2018-Jul-01 16:50N 29°44' W 095°13'3 6.3
2018-Jul-01 16:25N 29°45' W 095°11'3 6.6
2018-Jul-01 15:59N 29°44' W 095°08'2 3.8
2018-Jul-01 15:29N 29°46' W 095°06'0 0.6
2018-Jul-01 14:58N 29°46' W 095°07'0 0.0
2018-Jul-01 14:28N 29°46' W 095°07'0 0.0
2018-Jul-01 13:25N 29°46' W 095°07'0 0.0
2018-Jul-01 05:48N 29°46' W 095°07'0 0.0
2018-Jul-01 05:16N 29°46' W 095°07'0 0.0
2018-Jul-01 05:00N 29°46' W 095°07'0 0.0
2018-Jul-01 04:30N 29°46' W 095°07'0 0.0
2018-Jul-01 04:00N 29°46' W 095°07'0 0.0
2018-Jul-01 03:30N 29°46' W 095°07'0 0.0
2018-Jul-01 03:00N 29°46' W 095°07'0 0.0
2018-Jul-01 02:28N 29°46' W 095°07'0 0.0
2018-Jul-01 02:00N 29°46' W 095°07'0 0.0
2018-Jul-01 01:30N 29°46' W 095°07'0 0.0
2018-Jul-01 01:00N 29°46' W 095°07'0 0.0
2018-Jun-30 19:52N 29°46' W 095°07'1 1.1
2018-Jun-30 18:55N 29°46' W 095°05'1 0.7
2018-Jun-30 17:26N 29°46' W 095°07'0 0.0
2018-Jun-30 13:47N 29°46' W 095°06'  
Track history (hours):
 
Tides and Currents Weather Stations Pressure Air Temp Water Temp Dewpoint Dewpoint Depression Visibility Wind Speed Wind Dir Waves Ship Positions

Point Isabel

Owner: Higman Barge Lines, Inc., Orange, TX. More information available from US FCC via Universal Licensing System and Coast Guard Vessel Documentation Center.

Last reported at 2018-Jul-10 13:33 UTC. Time now 2018-Jul-21 07:52 UTC.
Position N 30°05' W 093°44'.
Warning: this ship's position is 10 days out of date.

Length 24 m; draft 3.2 m.

Type: . MMSI: 367193780.

Date/timePositionNaut miles runAvg speedWind from/ knotsBaromVisibWave heightAir tempDewpointWater temp
2018-Jul-10 13:33N 30°05' W 093°44'0 0.0
2018-Jul-10 13:16N 30°05' W 093°44'0 0.0
2018-Jul-10 12:55N 30°05' W 093°44'0 0.0
2018-Jul-10 12:29N 30°05' W 093°44'0 0.0
2018-Jul-10 12:00N 30°05' W 093°44'0 0.0
2018-Jul-10 11:27N 30°05' W 093°44'0 0.0
2018-Jul-10 11:00N 30°05' W 093°44'0 0.0
2018-Jul-10 10:27N 30°05' W 093°44'0 0.0
2018-Jul-10 10:00N 30°05' W 093°44'0 0.0
2018-Jul-10 09:31N 30°05' W 093°44'0 0.0
2018-Jul-10 07:51N 30°05' W 093°44'0 0.0
2018-Jul-10 07:29N 30°05' W 093°44'0 0.0
2018-Jul-10 07:00N 30°05' W 093°44'0 0.0
2018-Jul-10 06:30N 30°05' W 093°44'0 0.0
2018-Jul-10 06:00N 30°05' W 093°44'0 0.0
2018-Jul-10 05:30N 30°05' W 093°44'0 0.0
2018-Jul-10 04:57N 30°05' W 093°44'0 0.0
2018-Jul-10 04:30N 30°05' W 093°44'0 0.0
2018-Jul-10 03:57N 30°05' W 093°44'0 0.0
2018-Jul-10 03:30N 30°05' W 093°44'0 0.0
2018-Jul-10 02:43N 30°05' W 093°44'0 0.0
2018-Jul-10 02:11N 30°05' W 093°44'0 0.0
2018-Jul-10 01:58N 30°05' W 093°44'0 0.0
2018-Jul-10 01:29N 30°05' W 093°44'0 0.0
2018-Jul-10 00:56N 30°05' W 093°44'0 0.0
2018-Jul-10 00:18N 30°05' W 093°44'0 0.0
2018-Jul-09 23:39N 30°05' W 093°44'0 0.0
2018-Jul-09 23:29N 30°05' W 093°44'0 0.0
2018-Jul-09 23:00N 30°05' W 093°44'0 0.0
2018-Jul-08 13:35N 30°05' W 093°44'0 0.1
2018-Jul-08 13:30N 30°05' W 093°44'0 0.0
2018-Jul-08 12:59N 30°05' W 093°44'0 0.0
2018-Jul-08 12:25N 30°05' W 093°44'0 0.0
2018-Jul-08 10:01N 30°05' W 093°44'0 0.0
2018-Jul-08 10:00N 30°05' W 093°44'0 0.0
2018-Jul-08 08:56N 30°05' W 093°44'0 0.0
2018-Jul-08 07:52N 30°05' W 093°44'0 0.0
2018-Jul-08 07:28N 30°05' W 093°44'0 0.0
2018-Jul-08 06:41N 30°05' W 093°44'0 0.0
2018-Jul-08 06:27N 30°05' W 093°44'0 0.0
2018-Jul-08 06:00N 30°05' W 093°44'0 0.0
2018-Jul-08 04:21N 30°05' W 093°44'0 0.0
2018-Jul-08 03:58N 30°05' W 093°44'0 0.0
2018-Jul-08 00:33N 30°05' W 093°44'0 0.0
2018-Jul-08 00:30N 30°05' W 093°44'0 0.0
2018-Jul-07 23:59N 30°05' W 093°44'0 0.0
2018-Jul-07 23:30N 30°05' W 093°44'12 1.7
2018-Jul-07 16:46N 29°56' W 093°52'2 6.5
2018-Jul-07 16:30N 29°54' W 093°54'4 7.0
2018-Jul-07 15:57N 29°52' W 093°56'3 5.9
2018-Jul-07 15:23N 29°49' W 093°59'41 4.7
2018-Jul-07 06:43N 29°28' W 094°39'11 3.6
2018-Jul-07 03:37N 29°30' W 094°52'1 6.2
2018-Jul-07 03:30N 29°30' W 094°52'3 6.1
2018-Jul-07 03:00N 29°33' W 094°54'3 6.0
2018-Jul-07 02:30N 29°35' W 094°56'3 5.8
2018-Jul-07 01:58N 29°38' W 094°58'3 6.3
2018-Jul-07 01:30N 29°41' W 094°59'3 6.2
2018-Jul-07 01:00N 29°43' W 095°01'3 5.6
2018-Jul-07 00:30N 29°45' W 095°04'3 0.3
2018-Jul-06 15:00N 29°47' W 095°04'0 0.0
2018-Jul-06 13:52N 29°47' W 095°04'0 0.0
2018-Jul-06 13:27N 29°47' W 095°04'0 0.0
2018-Jul-06 13:00N 29°47' W 095°04'0 0.0
2018-Jul-06 12:30N 29°47' W 095°04'0 0.0
2018-Jul-06 11:47N 29°47' W 095°04'0 0.0
2018-Jul-06 06:03N 29°47' W 095°04'0 0.0
2018-Jul-06 06:00N 29°47' W 095°04'0 0.0
2018-Jul-06 05:30N 29°47' W 095°04'0 0.0
2018-Jul-06 05:00N 29°47' W 095°04'0 0.0
2018-Jul-06 04:25N 29°47' W 095°04'0 0.0
2018-Jul-06 03:23N 29°47' W 095°04'0 0.0
2018-Jul-06 02:59N 29°47' W 095°04'0 0.0
2018-Jul-06 01:34N 29°47' W 095°04'0 0.0
2018-Jul-06 01:08N 29°47' W 095°04'0 0.0
2018-Jul-05 14:00N 29°47' W 095°04'0 0.0
2018-Jul-05 13:30N 29°47' W 095°04'0 0.0
2018-Jul-05 12:59N 29°47' W 095°04'0 0.0
2018-Jul-05 12:26N 29°47' W 095°04'0 0.0
2018-Jul-05 12:00N 29°47' W 095°04'0 0.0
2018-Jul-05 11:29N 29°47' W 095°04'0 0.0
2018-Jul-05 10:59N 29°47' W 095°04'0 0.6
2018-Jul-05 10:30N 29°48' W 095°04'0 0.0
2018-Jul-05 10:00N 29°48' W 095°04'0 0.3
2018-Jul-05 09:30N 29°47' W 095°04'0 0.0
2018-Jul-05 09:00N 29°47' W 095°04'0 0.0
2018-Jul-05 08:30N 29°47' W 095°04'0 0.0
2018-Jul-05 08:00N 29°47' W 095°04'0 0.0
2018-Jul-05 07:27N 29°47' W 095°04'0 0.0
2018-Jul-05 07:00N 29°47' W 095°04'0 0.0
2018-Jul-05 06:28N 29°47' W 095°04'0 0.0
2018-Jul-05 05:29N 29°47' W 095°04'0 0.0
2018-Jul-05 04:59N 29°47' W 095°04'0 0.0
2018-Jul-05 04:30N 29°47' W 095°04'0 0.0
2018-Jul-05 03:46N 29°47' W 095°04'1 0.1
2018-Jul-04 21:55N 29°47' W 095°04'1 1.3
2018-Jul-04 20:59N 29°46' W 095°05'1 0.9
2018-Jul-04 20:21N 29°45' W 095°06'0 0.2
2018-Jul-04 19:53N 29°45' W 095°06'3 5.1
2018-Jul-04 19:23N 29°48' W 095°04'0 0.0
2018-Jul-04 18:52N 29°48' W 095°04'0 0.0
2018-Jul-04 18:08N 29°48' W 095°04'0 0.0
2018-Jul-04 17:56N 29°48' W 095°04'0 0.0
2018-Jul-04 17:30N 29°48' W 095°04'1 0.3
2018-Jul-04 15:13N 29°47' W 095°05'0 0.1
2018-Jul-04 15:00N 29°47' W 095°05'0 0.0
2018-Jul-04 14:30N 29°47' W 095°05'0 0.0
2018-Jul-04 14:00N 29°47' W 095°05'0 0.0
2018-Jul-04 13:28N 29°47' W 095°05'0 0.4
2018-Jul-04 13:00N 29°47' W 095°04'1 2.4
2018-Jul-04 12:30N 29°46' W 095°05'3 4.9
2018-Jul-04 11:55N 29°44' W 095°08'5 5.1
2018-Jul-04 10:58N 29°43' W 095°13'1 2.9
2018-Jul-04 10:30N 29°43' W 095°15'0 0.0
2018-Jul-04 10:00N 29°43' W 095°15'0 0.0
2018-Jul-04 05:57N 29°43' W 095°15'0 0.1
2018-Jul-04 05:25N 29°43' W 095°15'1 2.0
2018-Jul-04 04:57N 29°44' W 095°14'0 0.1
2018-Jul-04 04:29N 29°44' W 095°14'2 4.7
2018-Jul-04 04:00N 29°45' W 095°11'3 6.4
2018-Jul-04 03:29N 29°44' W 095°08'3 6.5
2018-Jul-04 03:00N 29°46' W 095°05'1 1.8
2018-Jul-04 02:29N 29°47' W 095°04'1 1.0
2018-Jul-04 01:31N 29°47' W 095°06'0 0.4
2018-Jul-04 01:19N 29°47' W 095°05'1 2.7
2018-Jul-04 01:00N 29°47' W 095°05'0 0.1
2018-Jul-03 23:57N 29°47' W 095°04'0 0.3
2018-Jul-03 23:30N 29°47' W 095°05'0 0.0
2018-Jul-03 23:00N 29°47' W 095°05'0 0.0
2018-Jul-03 22:30N 29°47' W 095°05'0 0.0
2018-Jul-03 22:00N 29°47' W 095°05'0 0.0
2018-Jul-03 21:30N 29°47' W 095°05'0 0.0
2018-Jul-03 21:00N 29°47' W 095°05'0 0.1
2018-Jul-03 20:26N 29°47' W 095°04'0 0.4
2018-Jul-03 19:57N 29°47' W 095°05'0 0.4
2018-Jul-03 19:27N 29°47' W 095°05'0 0.0
2018-Jul-03 19:00N 29°47' W 095°05'0 0.0
2018-Jul-03 18:30N 29°47' W 095°05'0 0.0
2018-Jul-03 18:00N 29°47' W 095°05'0 0.0
2018-Jul-03 17:30N 29°47' W 095°05'0 0.0
2018-Jul-03 17:00N 29°47' W 095°05'0 0.7
2018-Jul-03 16:23N 29°47' W 095°04'0 1.1
2018-Jul-03 16:00N 29°47' W 095°05'0 0.0
2018-Jul-03 15:30N 29°47' W 095°05'0 0.0
2018-Jul-03 15:00N 29°47' W 095°05'0 0.0
2018-Jul-03 14:30N 29°47' W 095°05'0 0.0
2018-Jul-03 14:00N 29°47' W 095°05'0 0.0
2018-Jul-03 12:09N 29°47' W 095°05'0 0.0
2018-Jul-03 12:00N 29°47' W 095°05'0 0.0
2018-Jul-03 11:30N 29°47' W 095°05'0 0.0
2018-Jul-03 11:00N 29°47' W 095°05'0 0.0
2018-Jul-03 10:31N 29°47' W 095°05'0 0.0
2018-Jul-03 10:01N 29°47' W 095°05'0 0.0
2018-Jul-03 09:30N 29°47' W 095°05'0 0.0
2018-Jul-03 09:00N 29°47' W 095°05'0 0.0
2018-Jul-03 08:30N 29°47' W 095°05'0 0.0
2018-Jul-03 08:00N 29°47' W 095°05'0 0.0
2018-Jul-03 07:31N 29°47' W 095°05'0 0.0
2018-Jul-03 07:00N 29°47' W 095°05'0 0.0
2018-Jul-03 06:30N 29°47' W 095°05'1 2.2
2018-Jul-03 06:00N 29°46' W 095°05'1 1.8
2018-Jul-03 05:20N 29°45' W 095°06'0 0.1
2018-Jul-03 04:52N 29°45' W 095°06'1 3.5
2018-Jul-03 04:30N 29°46' W 095°05'1 2.4
2018-Jul-03 03:58N 29°47' W 095°05'0 0.4
2018-Jul-03 03:28N 29°47' W 095°06'0 0.1
2018-Jul-03 02:57N 29°47' W 095°05'0 0.0
2018-Jul-03 02:30N 29°47' W 095°05'0 0.0
2018-Jul-03 01:59N 29°47' W 095°05'0 0.0
2018-Jul-03 01:23N 29°47' W 095°05'0 0.0
2018-Jul-03 00:52N 29°47' W 095°05'0 0.0
2018-Jul-03 00:28N 29°47' W 095°05'0 0.0
2018-Jul-02 14:04N 29°47' W 095°06'0 0.0
2018-Jul-02 13:53N 29°47' W 095°06'0 0.0
2018-Jul-02 13:24N 29°47' W 095°06'0 0.0
2018-Jul-02 13:00N 29°47' W 095°06'0 0.0
2018-Jul-02 12:30N 29°47' W 095°06'0 0.0
2018-Jul-02 12:00N 29°47' W 095°06'0 0.0
2018-Jul-02 11:20N 29°47' W 095°06'0 0.0
2018-Jul-02 10:56N 29°47' W 095°06'0 0.0
2018-Jul-02 10:29N 29°47' W 095°06'0 0.0
2018-Jul-02 09:59N 29°47' W 095°06'0 0.0
2018-Jul-02 09:30N 29°47' W 095°06'0 0.0
2018-Jul-02 08:59N 29°47' W 095°06'0 0.0
2018-Jul-02 08:29N 29°47' W 095°06'1 2.1
2018-Jul-02 08:00N 29°47' W 095°04'0 0.4
2018-Jul-02 07:30N 29°47' W 095°05'0 0.0
2018-Jul-02 07:00N 29°47' W 095°05'0 0.0
2018-Jul-02 06:30N 29°47' W 095°05'0 0.0
2018-Jul-02 06:01N 29°47' W 095°05'0 0.0
2018-Jul-02 05:30N 29°47' W 095°05'0 0.0
2018-Jul-02 05:01N 29°47' W 095°05'0 0.0
2018-Jul-02 04:30N 29°47' W 095°05'0 0.0
2018-Jul-02 04:00N 29°47' W 095°05'0 0.0
2018-Jul-02 03:31N 29°47' W 095°05'0 0.0
2018-Jul-02 03:00N 29°47' W 095°05'0 0.0
2018-Jul-02 02:30N 29°47' W 095°05'0 0.0
2018-Jul-02 02:00N 29°47' W 095°05'0 0.0
2018-Jul-02 01:30N 29°47' W 095°05'0 0.0
2018-Jul-02 01:00N 29°47' W 095°05'0 0.0
2018-Jul-02 00:30N 29°47' W 095°05'0 0.0
2018-Jul-02 00:00N 29°47' W 095°05'0 0.0
2018-Jul-01 23:30N 29°47' W 095°05'0 0.0
2018-Jul-01 23:00N 29°47' W 095°05'0 0.0
2018-Jul-01 22:30N 29°47' W 095°05'0 0.0
2018-Jul-01 22:00N 29°47' W 095°05'0 0.0
2018-Jul-01 21:31N 29°47' W 095°05'0 0.0
2018-Jul-01 21:00N 29°47' W 095°05'0 0.0
2018-Jul-01 20:30N 29°47' W 095°05'0 0.7
2018-Jul-01 19:59N 29°47' W 095°05'1 0.7
2018-Jul-01 19:04N 29°47' W 095°04'0 5.0
2018-Jul-01 19:00N 29°47' W 095°05'5 6.8
2018-Jul-01 18:18N 29°44' W 095°09'4 2.5
2018-Jul-01 16:50N 29°44' W 095°13'3 6.3
2018-Jul-01 16:25N 29°45' W 095°11'3 6.6
2018-Jul-01 15:59N 29°44' W 095°08'2 3.8
2018-Jul-01 15:29N 29°46' W 095°06'0 0.6
2018-Jul-01 14:58N 29°46' W 095°07'0 0.0
2018-Jul-01 14:28N 29°46' W 095°07'0 0.0
2018-Jul-01 13:25N 29°46' W 095°07'0 0.0
2018-Jul-01 05:48N 29°46' W 095°07'0 0.0
2018-Jul-01 05:16N 29°46' W 095°07'0 0.0
2018-Jul-01 05:00N 29°46' W 095°07'0 0.0
2018-Jul-01 04:30N 29°46' W 095°07'0 0.0
2018-Jul-01 04:00N 29°46' W 095°07'0 0.0
2018-Jul-01 03:30N 29°46' W 095°07'0 0.0
2018-Jul-01 03:00N 29°46' W 095°07'0 0.0
2018-Jul-01 02:28N 29°46' W 095°07'0 0.0
2018-Jul-01 02:00N 29°46' W 095°07'0 0.0
2018-Jul-01 01:30N 29°46' W 095°07'0 0.0
2018-Jul-01 01:00N 29°46' W 095°07'0 0.0
2018-Jun-30 19:52N 29°46' W 095°07'1 1.1
2018-Jun-30 18:55N 29°46' W 095°05'1 0.7
2018-Jun-30 17:26N 29°46' W 095°07'0 0.0
2018-Jun-30 13:47N 29°46' W 095°06'  

Dump ship's entire track history